Spring Ploeg — ZGFI7 — position and weather

sailwx.info

Track history (hours):
 
Tides and Currents Weather Stations Pressure Air Temp Water Temp Dewpoint Dewpoint Depression Visibility Wind Speed Wind Dir Waves Ship Positions

Spring Ploeg

Last reported at 2017-Sep-07 15:30 UTC. Time now 2017-Sep-22 22:44 UTC.
Position N 31°37' E 032°06'.
Warning: this ship's position is 15 days out of date.

Length 147 m; draft 9.7 m.

Type: Tanker. MMSI: 319109600.

Date/timePositionNaut miles runAvg speedWind from/ knotsBaromVisibWave heightAir tempDewpointWater temp
2017-Sep-07 15:30N 31°37' E 032°06'1014.2
2017-Sep-07 14:50N 31°44' E 031°59'  
2017-Sep-05 00:50N 36°13' E 015°16'1914.7
2017-Sep-04 23:31N 36°17' E 014°53'314.6
2017-Sep-04 23:21N 36°17' E 014°49'514.6
2017-Sep-04 23:00N 36°18' E 014°43'714.6
2017-Sep-04 22:30N 36°21' E 014°35'714.6
2017-Sep-04 22:00N 36°23' E 014°26'714.6
2017-Sep-04 21:30N 36°25' E 014°18'714.6
2017-Sep-04 21:00N 36°28' E 014°09'814.6
2017-Sep-04 20:28N 36°30' E 013°60'714.4
2017-Sep-04 19:58N 36°32' E 013°51'  
2017-Sep-02 01:38N 36°00' W 005°14'214.7
2017-Sep-02 01:30N 35°59' W 005°17'714.3
2017-Sep-02 01:00N 35°58' W 005°25'  
Track history (hours):
 
Tides and Currents Weather Stations Pressure Air Temp Water Temp Dewpoint Dewpoint Depression Visibility Wind Speed Wind Dir Waves Ship Positions

Spring Ploeg

Last reported at 2017-Sep-07 15:30 UTC. Time now 2017-Sep-22 22:44 UTC.
Position N 31°37' E 032°06'.
Warning: this ship's position is 15 days out of date.

Length 147 m; draft 9.7 m.

Type: Tanker. MMSI: 319109600.

Date/timePositionNaut miles runAvg speedWind from/ knotsBaromVisibWave heightAir tempDewpointWater temp
2017-Sep-07 15:30N 31°37' E 032°06'1014.2
2017-Sep-07 14:50N 31°44' E 031°59'  
2017-Sep-05 00:50N 36°13' E 015°16'1914.7
2017-Sep-04 23:31N 36°17' E 014°53'314.6
2017-Sep-04 23:21N 36°17' E 014°49'514.6
2017-Sep-04 23:00N 36°18' E 014°43'714.6
2017-Sep-04 22:30N 36°21' E 014°35'714.6
2017-Sep-04 22:00N 36°23' E 014°26'714.6
2017-Sep-04 21:30N 36°25' E 014°18'714.6
2017-Sep-04 21:00N 36°28' E 014°09'814.6
2017-Sep-04 20:28N 36°30' E 013°60'714.4
2017-Sep-04 19:58N 36°32' E 013°51'  
2017-Sep-02 01:38N 36°00' W 005°14'214.7
2017-Sep-02 01:30N 35°59' W 005°17'714.3
2017-Sep-02 01:00N 35°58' W 005°25'  

Dump ship's entire track history